createdAt,value
2019-03-11T00:02:01.486Z,99625.05
2019-03-11T00:04:32.323Z,99631.88
2019-03-11T00:07:05.704Z,99642.51
2019-03-11T00:09:37.626Z,99653.58
2019-03-11T00:12:08.752Z,99679.27
2019-03-11T00:14:39.628Z,99680.14
2019-03-11T00:17:11.061Z,99685.80
2019-03-11T00:19:42.509Z,99688.73
2019-03-11T00:22:13.951Z,99691.91
2019-03-11T00:24:45.581Z,99700.30
2019-03-11T00:27:16.870Z,99713.05
2019-03-11T00:29:49.509Z,99698.92
2019-03-11T00:32:21.261Z,99738.06
2019-03-11T00:34:52.455Z,99748.42
2019-03-11T00:37:23.423Z,99750.30
2019-03-11T00:39:55.100Z,99762.47
2019-03-11T00:42:27.297Z,99769.86
2019-03-11T00:44:58.622Z,99785.27
2019-03-11T00:47:30.344Z,99797.56
2019-03-11T00:50:01.931Z,99806.64
2019-03-11T00:52:32.733Z,99817.31
2019-03-11T00:55:05.016Z,99819.69
2019-03-11T00:57:36.665Z,99831.54
2019-03-11T01:00:10.805Z,99841.82
2019-03-11T01:02:42.620Z,99848.97
2019-03-11T01:05:14.497Z,99856.36
2019-03-11T01:07:45.748Z,99851.63
2019-03-11T01:10:16.917Z,99869.63
2019-03-11T01:12:48.349Z,99863.69
2019-03-11T01:15:19.707Z,99872.00
2019-03-11T01:17:50.649Z,99873.29
2019-03-11T01:20:22.925Z,99868.35
2019-03-11T01:22:54.430Z,99870.11
2019-03-11T01:25:27.359Z,99876.86
2019-03-11T01:27:59.824Z,99882.21
2019-03-11T01:30:31.193Z,99858.88
2019-03-11T01:33:02.903Z,99880.81
2019-03-11T01:35:34.767Z,99887.56
2019-03-11T01:38:06.170Z,99884.67
2019-03-11T01:40:37.839Z,99888.66
2019-03-11T01:43:09.085Z,99887.05
2019-03-11T01:45:42.255Z,99892.20
2019-03-11T01:48:13.970Z,99891.23
2019-03-11T01:50:45.853Z,99899.03
2019-03-11T01:53:17.586Z,99903.17
2019-03-11T01:55:49.049Z,99903.28
2019-03-11T01:58:20.654Z,99914.73
2019-03-11T02:00:52.325Z,99911.69
2019-03-11T02:03:24.148Z,99909.42
2019-03-11T02:05:56.326Z,99919.80
2019-03-11T02:08:27.921Z,99918.72
2019-03-11T02:10:59.436Z,99928.41
2019-03-11T02:13:31.506Z,99941.18
2019-03-11T02:16:03.517Z,99944.43
2019-03-11T02:18:34.902Z,99950.17
2019-03-11T02:21:06.929Z,99941.38
2019-03-11T02:23:38.876Z,99959.95
2019-03-11T02:26:10.666Z,99961.95
2019-03-11T02:28:42.238Z,99966.89
2019-03-11T02:31:14.002Z,99973.81
2019-03-11T02:33:45.360Z,99969.87
2019-03-11T02:36:16.625Z,99982.61
2019-03-11T02:38:47.344Z,99975.91
2019-03-11T02:41:19.389Z,99969.56
2019-03-11T02:43:50.951Z,99972.53
2019-03-11T02:46:23.342Z,99979.25
2019-03-11T02:48:54.504Z,99980.25
2019-03-11T02:51:25.714Z,99980.34
2019-03-11T02:53:57.656Z,99986.48
2019-03-11T02:56:29.611Z,99990.45
2019-03-11T02:59:01.514Z,99983.11
2019-03-11T03:01:33.945Z,99991.35
2019-03-11T03:04:06.685Z,100003.90
2019-03-11T03:06:37.780Z,100008.77
2019-03-11T03:09:12.699Z,100005.90
2019-03-11T03:11:44.538Z,100015.99
2019-03-11T03:14:16.279Z,100030.63
2019-03-11T03:16:47.389Z,100024.69
2019-03-11T03:19:18.307Z,100029.62
2019-03-11T03:21:50.586Z,100029.34
2019-03-11T03:24:22.104Z,100038.06
2019-03-11T03:26:55.191Z,100037.14
2019-03-11T03:29:26.401Z,100045.17
2019-03-11T03:31:57.651Z,100047.75
2019-03-11T03:34:29.602Z,100050.20
2019-03-11T03:37:01.624Z,100049.63
2019-03-11T03:39:33.007Z,100069.59
2019-03-11T03:42:04.839Z,100069.59
2019-03-11T03:44:35.860Z,100066.69
2019-03-11T03:47:06.961Z,100069.36
2019-03-11T03:49:37.871Z,100071.25
2019-03-11T03:52:09.266Z,100077.16
2019-03-11T03:54:40.431Z,100076.19
2019-03-11T03:57:12.786Z,100076.86
2019-03-11T03:59:43.867Z,100082.86
2019-03-11T04:02:15.190Z,100087.48
2019-03-11T04:04:46.854Z,100087.64
2019-03-11T04:07:21.031Z,100093.45
2019-03-11T04:09:52.840Z,100092.78
2019-03-11T04:12:24.797Z,100096.69
2019-03-11T04:14:56.526Z,100099.60
2019-03-11T04:17:27.915Z,100103.49
2019-03-11T04:20:00.078Z,100105.27
2019-03-11T04:23:38.026Z,100113.28
2019-03-11T04:26:10.441Z,100120.33
2019-03-11T04:28:42.556Z,100128.75
2019-03-11T04:31:13.718Z,100127.19
2019-03-11T04:33:44.774Z,100129.61
2019-03-11T04:36:18.346Z,100142.95
2019-03-11T04:38:50.181Z,100137.32
2019-03-11T04:41:21.700Z,100132.66
2019-03-11T04:43:52.758Z,100139.03
2019-03-11T04:46:24.866Z,100136.06
2019-03-11T04:48:56.626Z,100139.31
2019-03-11T04:51:28.346Z,100143.56
2019-03-11T04:54:02.438Z,100141.08
2019-03-11T04:56:34.455Z,100147.83
2019-03-11T04:59:10.583Z,100151.09
2019-03-11T05:01:43.152Z,100153.23
2019-03-11T05:04:15.015Z,100148.41
2019-03-11T05:06:47.000Z,100152.81
2019-03-11T05:09:17.962Z,100154.89
2019-03-11T05:11:49.237Z,100152.53
2019-03-11T05:14:21.006Z,100157.80
2019-03-11T05:16:52.417Z,100157.67
2019-03-11T05:19:23.008Z,100157.41
2019-03-11T05:21:54.848Z,100177.77
2019-03-11T05:24:26.072Z,100166.68
2019-03-11T05:26:58.204Z,100174.22
2019-03-11T05:29:29.929Z,100183.58
2019-03-11T05:32:02.083Z,100179.59
2019-03-11T05:34:33.051Z,100182.47
2019-03-11T05:37:04.183Z,100182.95
2019-03-11T05:39:36.121Z,100184.55
2019-03-11T05:42:07.977Z,100184.16
2019-03-11T05:44:40.379Z,100180.52
2019-03-11T05:47:11.753Z,100183.00
2019-03-11T05:49:46.385Z,100185.57
2019-03-11T05:52:17.415Z,100190.31
2019-03-11T05:54:49.005Z,100189.42
2019-03-11T05:57:20.198Z,100189.37
2019-03-11T05:59:51.873Z,100191.91
2019-03-11T06:02:23.609Z,100196.96
2019-03-11T06:04:54.662Z,100202.23
2019-03-11T06:07:32.612Z,100209.16
2019-03-11T07:08:47.565Z,100240.41
2019-03-11T07:11:18.250Z,100245.77
2019-03-11T07:13:49.890Z,100242.22
2019-03-11T07:16:20.695Z,100241.20
2019-03-11T07:18:52.364Z,100243.72
2019-03-11T07:21:23.947Z,100250.82
2019-03-11T07:23:55.297Z,100252.72
2019-03-11T07:26:26.170Z,100248.98
2019-03-11T07:28:58.683Z,100253.89
2019-03-11T07:31:30.917Z,100252.05
2019-03-11T07:34:02.058Z,100253.92
2019-03-11T07:36:33.197Z,100241.27
2019-03-11T07:39:06.005Z,100244.73
2019-03-11T07:41:36.921Z,100256.00
2019-03-11T07:44:07.360Z,100249.56
2019-03-11T07:46:37.913Z,100250.64
2019-03-11T07:49:08.362Z,100248.55
2019-03-11T07:51:38.804Z,100251.25
2019-03-11T07:54:09.480Z,100250.77
2019-03-11T07:56:40.257Z,100248.01
2019-03-11T07:59:10.717Z,100246.27
2019-03-11T08:01:41.261Z,100237.31
2019-03-11T08:04:11.874Z,100239.61
2019-03-11T08:06:42.383Z,100241.81
2019-03-11T08:09:13.288Z,100234.98
2019-03-11T08:11:44.184Z,100238.66
2019-03-11T08:14:14.694Z,100241.41
2019-03-11T08:16:45.266Z,100240.90
2019-03-11T08:19:15.797Z,100241.84
2019-03-11T08:21:46.826Z,100243.33
2019-03-11T08:24:17.563Z,100245.28
2019-03-11T08:26:48.222Z,100244.27
2019-03-11T08:29:18.834Z,100248.56
2019-03-11T08:31:49.420Z,100245.73
2019-03-11T08:34:19.940Z,100242.05
2019-03-11T08:36:50.479Z,100238.29
2019-03-11T08:39:21.275Z,100234.61
2019-03-11T08:41:51.721Z,100242.81
2019-03-11T08:44:22.580Z,100235.62
2019-03-11T08:46:53.252Z,100239.74
2019-03-11T08:49:23.685Z,100243.70
2019-03-11T08:51:54.165Z,100240.72
2019-03-11T08:54:24.641Z,100237.39
2019-03-11T08:56:55.455Z,100244.71
2019-03-11T08:59:25.922Z,100241.34
2019-03-11T09:01:56.415Z,100238.50
2019-03-11T09:04:26.837Z,100237.30
2019-03-11T09:06:57.949Z,100237.05
2019-03-11T09:09:28.685Z,100241.70
2019-03-11T09:11:59.182Z,100249.06
2019-03-11T09:14:29.521Z,100244.45
2019-03-11T09:17:00.087Z,100248.00
2019-03-11T09:19:30.442Z,100248.36
2019-03-11T09:22:00.980Z,100249.81
2019-03-11T09:24:31.421Z,100243.22
2019-03-11T09:27:01.856Z,100249.81
2019-03-11T09:29:32.323Z,100240.50
2019-03-11T09:32:02.787Z,100242.19
2019-03-11T09:34:33.459Z,100241.97
2019-03-11T09:37:04.182Z,100243.56
2019-03-11T09:39:34.612Z,100248.53
2019-03-11T09:42:05.081Z,100254.88
2019-03-11T09:44:35.820Z,100255.49
2019-03-11T09:47:06.302Z,100255.22
2019-03-11T09:49:36.899Z,100253.17
2019-03-11T09:52:07.821Z,100250.19
2019-03-11T09:54:38.585Z,100255.42
2019-03-11T09:57:09.030Z,100254.66
2019-03-11T09:59:39.876Z,100249.48
2019-03-11T10:02:12.289Z,100253.63
2019-03-11T10:04:43.220Z,100246.72
2019-03-11T10:07:13.771Z,100246.05
2019-03-11T10:09:45.061Z,100242.77
2019-03-11T10:12:15.667Z,100244.27
2019-03-11T10:14:46.200Z,100252.17
2019-03-11T10:17:16.884Z,100249.96
2019-03-11T10:19:47.260Z,100244.64
2019-03-11T10:22:17.654Z,100244.16
2019-03-11T10:24:48.349Z,100245.15
2019-03-11T10:27:18.792Z,100243.60
2019-03-11T10:29:49.222Z,100246.20
2019-03-11T10:32:19.627Z,100233.81
2019-03-11T10:34:50.401Z,100239.24
2019-03-11T10:37:20.801Z,100240.25
2019-03-11T10:39:51.329Z,100236.98
2019-03-11T10:42:21.780Z,100239.18
2019-03-11T10:44:52.150Z,100234.31
2019-03-11T10:47:22.765Z,100236.91
2019-03-11T10:49:53.253Z,100234.53
2019-03-11T10:52:23.862Z,100232.16
2019-03-11T10:54:54.376Z,100224.63
2019-03-11T10:57:24.942Z,100224.02
2019-03-11T10:59:55.392Z,100231.06
2019-03-11T11:02:26.072Z,100224.02
2019-03-11T11:04:56.737Z,100225.30
2019-03-11T11:07:31.041Z,100222.92
2019-03-11T11:10:03.161Z,100227.48
2019-03-11T11:12:34.440Z,100226.19
2019-03-11T11:15:08.244Z,100219.95
2019-03-11T11:17:38.817Z,100225.00
2019-03-11T11:20:12.347Z,100225.17
2019-03-11T11:22:43.094Z,100215.67
2019-03-11T11:25:16.908Z,100216.13
2019-03-11T11:27:47.342Z,100213.34
2019-03-11T11:30:19.406Z,100216.46
2019-03-11T11:32:50.124Z,100215.66
2019-03-11T11:35:20.801Z,100228.54
2019-03-11T11:37:51.297Z,100224.80
2019-03-11T11:40:24.463Z,100220.94
2019-03-11T11:42:54.940Z,100221.97
2019-03-11T11:45:27.342Z,100220.03
2019-03-11T11:47:57.846Z,100214.39
2019-03-11T11:50:28.525Z,100203.73
2019-03-11T11:52:58.974Z,100195.88
2019-03-11T11:55:30.016Z,100200.34
2019-03-11T11:58:00.770Z,100202.05
2019-03-11T12:00:33.483Z,100191.61
2019-03-11T12:03:04.412Z,100190.58
2019-03-11T12:05:35.338Z,100189.28
2019-03-11T12:08:05.825Z,100192.79
2019-03-11T12:10:39.447Z,100189.03
2019-03-11T12:13:10.261Z,100204.53
2019-03-11T12:15:40.999Z,100194.67
2019-03-11T12:18:11.630Z,100211.19
2019-03-11T12:20:42.215Z,100221.97
2019-03-11T12:23:12.957Z,100217.89
2019-03-11T12:25:43.406Z,100215.52
2019-03-11T12:28:14.297Z,100203.98
2019-03-11T12:30:44.959Z,100209.72
2019-03-11T12:33:15.908Z,100210.33
2019-03-11T12:35:47.112Z,100202.66
2019-03-11T12:38:18.998Z,100206.15
2019-03-11T12:40:50.415Z,100198.80
2019-03-11T12:43:21.071Z,100207.10
2019-03-11T12:45:52.006Z,100202.63
2019-03-11T12:48:22.383Z,100204.73
2019-03-11T12:50:52.902Z,100197.73
2019-03-11T12:53:23.461Z,100202.41
2019-03-11T12:55:54.561Z,100205.22
2019-03-11T12:58:25.370Z,100203.95
2019-03-11T13:00:56.792Z,100207.34
2019-03-11T13:03:28.678Z,100209.60
2019-03-11T13:05:59.258Z,100207.58
2019-03-11T13:08:30.430Z,100216.25
2019-03-11T13:11:00.903Z,100213.78
2019-03-11T13:13:31.814Z,100217.94
2019-03-11T13:16:02.452Z,100219.69
2019-03-11T13:18:35.915Z,100216.78
2019-03-11T13:21:10.577Z,100223.24
2019-03-11T13:23:41.754Z,100214.75
2019-03-11T13:26:16.435Z,100213.16
2019-03-11T13:28:47.636Z,100210.13
2019-03-11T13:31:18.042Z,100212.01
2019-03-11T13:33:48.585Z,100206.98
2019-03-11T13:36:27.176Z,100232.05
2019-03-11T13:38:58.325Z,100231.80
2019-03-11T13:41:28.913Z,100233.02
2019-03-11T13:43:59.496Z,100238.11
2019-03-11T13:46:29.890Z,100236.16
2019-03-11T13:49:00.453Z,100239.41
2019-03-11T13:51:30.985Z,100238.52
2019-03-11T13:54:01.548Z,100241.47
2019-03-11T13:56:32.021Z,100243.50
2019-03-11T13:59:02.502Z,100253.94
2019-03-11T14:01:33.018Z,100249.53
2019-03-11T14:04:03.682Z,100245.66
2019-03-11T14:06:34.582Z,100253.70
2019-03-11T14:09:06.776Z,100243.28
2019-03-11T14:11:41.746Z,100254.05
2019-03-11T14:14:13.545Z,100251.76
2019-03-11T14:16:44.225Z,100251.76
2019-03-11T14:19:14.773Z,100259.41
2019-03-11T14:21:45.216Z,100257.78
2019-03-11T14:24:15.728Z,100259.05
2019-03-11T14:26:46.332Z,100269.78
2019-03-11T14:29:16.874Z,100297.16
2019-03-11T14:31:49.615Z,100292.42
2019-03-11T14:34:20.152Z,100307.75
2019-03-11T14:36:52.902Z,100300.61
2019-03-11T14:39:23.438Z,100302.79
2019-03-11T14:41:54.111Z,100306.73
2019-03-11T14:44:24.578Z,100309.89
2019-03-11T14:46:55.034Z,100307.30
2019-03-11T14:49:25.708Z,100315.42
2019-03-11T14:51:56.161Z,100311.98
2019-03-11T14:54:26.665Z,100303.34
2019-03-11T14:56:57.133Z,100307.70
2019-03-11T14:59:27.511Z,100302.41
2019-03-11T15:01:58.041Z,100316.66
2019-03-11T15:04:28.531Z,100316.30
2019-03-11T15:06:58.997Z,100322.20
2019-03-11T15:09:30.061Z,100311.72
2019-03-11T15:12:00.427Z,100323.95
2019-03-11T15:14:33.650Z,100330.92
2019-03-11T15:17:03.337Z,100336.22
2019-03-11T15:19:33.815Z,100336.41
2019-03-11T15:22:04.316Z,100331.44
2019-03-11T15:24:34.725Z,100329.81
2019-03-11T15:27:16.184Z,100339.44
2019-03-11T15:29:51.807Z,100342.06
2019-03-11T15:32:22.364Z,100340.95
2019-03-11T15:34:52.859Z,100342.72
2019-03-11T15:37:24.763Z,100336.44
2019-03-11T15:39:55.295Z,100335.83
2019-03-11T15:42:25.777Z,100337.73
2019-03-11T15:44:56.416Z,100329.20
2019-03-11T15:47:27.090Z,100330.80
2019-03-11T15:49:58.477Z,100333.40
2019-03-11T15:52:28.908Z,100337.17
2019-03-11T15:54:59.443Z,100342.02
2019-03-11T15:57:38.739Z,100348.52
2019-03-11T16:00:03.494Z,100353.45
2019-03-11T16:02:35.525Z,100366.87
2019-03-11T16:05:05.973Z,100377.61
2019-03-11T16:07:36.458Z,100379.34
2019-03-11T16:10:16.728Z,100375.10
2019-03-11T16:12:47.782Z,100382.23
2019-03-11T16:15:20.029Z,100381.01
2019-03-11T16:17:50.556Z,100383.28
2019-03-11T16:20:22.609Z,100379.82
2019-03-11T16:22:52.989Z,100384.52
2019-03-11T16:25:23.394Z,100385.70
2019-03-11T16:27:54.984Z,100383.67
2019-03-11T16:30:26.573Z,100385.55
2019-03-11T16:33:06.175Z,100387.20
2019-03-11T16:35:36.624Z,100387.95
2019-03-11T16:38:07.230Z,100387.60
2019-03-11T16:40:38.216Z,100394.55
2019-03-11T16:43:08.956Z,100394.05
2019-03-11T16:45:39.564Z,100398.70
2019-03-11T16:48:11.929Z,100401.80
2019-03-11T16:50:45.983Z,100406.93
2019-03-11T16:53:19.698Z,100410.19
2019-03-11T16:55:51.841Z,100409.38
2019-03-11T16:58:23.616Z,100414.80
2019-03-11T17:00:55.907Z,100416.92
2019-03-11T17:03:26.367Z,100423.85
2019-03-11T17:05:56.919Z,100421.65
2019-03-11T17:08:28.146Z,100427.78
2019-03-11T17:11:00.372Z,100425.67
2019-03-11T17:13:34.166Z,100431.44
2019-03-11T17:16:05.723Z,100429.20
2019-03-11T17:18:36.986Z,100434.67
2019-03-11T17:21:07.466Z,100436.98
2019-03-11T17:23:38.442Z,100430.39
2019-03-11T17:26:09.004Z,100435.62
2019-03-11T17:28:40.091Z,100436.98
2019-03-11T17:31:10.553Z,100437.02
2019-03-11T17:33:41.089Z,100441.09
2019-03-11T17:36:12.865Z,100447.27
2019-03-11T17:38:43.454Z,100451.13
2019-03-11T17:41:14.430Z,100447.27
2019-03-11T17:43:45.523Z,100450.39
2019-03-11T17:46:16.511Z,100458.17
2019-03-11T17:48:47.100Z,100454.66
2019-03-11T17:51:17.805Z,100461.70
2019-03-11T17:53:48.724Z,100466.12
2019-03-11T17:56:19.550Z,100468.86
2019-03-11T17:58:50.103Z,100474.80
2019-03-11T18:01:21.281Z,100477.53
2019-03-11T18:03:52.021Z,100484.63
2019-03-11T18:06:22.723Z,100489.11
2019-03-11T18:08:53.827Z,100489.02
2019-03-11T18:11:24.907Z,100502.27
2019-03-11T18:13:56.433Z,100508.08
2019-03-11T18:16:26.994Z,100511.84
2019-03-11T18:18:57.622Z,100518.43
2019-03-11T18:21:28.742Z,100523.11
2019-03-11T18:23:59.854Z,100527.86
2019-03-11T18:26:30.302Z,100533.06
2019-03-11T18:29:00.821Z,100532.77
2019-03-11T18:31:34.372Z,100536.47
2019-03-11T18:34:05.142Z,100533.66
2019-03-11T18:36:35.994Z,100542.16
2019-03-11T18:39:07.922Z,100549.15
2019-03-11T18:41:38.799Z,100552.95
2019-03-11T18:44:11.367Z,100553.31
2019-03-11T18:46:43.899Z,100555.59
2019-03-11T18:49:18.259Z,100557.44
2019-03-11T18:51:50.428Z,100557.44
2019-03-11T18:54:25.077Z,100564.50
2019-03-11T18:56:56.259Z,100564.83
2019-03-11T18:59:26.730Z,100572.55
2019-03-11T19:01:57.535Z,100577.52
2019-03-11T19:04:28.245Z,100573.50
2019-03-11T19:06:59.309Z,100576.07
2019-03-11T19:09:29.789Z,100578.91
2019-03-11T19:12:01.542Z,100578.25
2019-03-11T19:14:36.857Z,100582.27
2019-03-11T19:17:09.166Z,100577.85
2019-03-11T19:19:46.247Z,100589.19
2019-03-11T19:22:14.987Z,100587.43
2019-03-11T19:24:45.437Z,100591.50
2019-03-11T19:27:16.059Z,100592.05
2019-03-11T19:29:46.879Z,100598.72
2019-03-11T19:32:18.460Z,100599.45
2019-03-11T19:34:49.144Z,100603.71
2019-03-11T19:37:19.800Z,100610.37
2019-03-11T19:39:50.353Z,100615.12
2019-03-11T19:42:21.071Z,100610.98
2019-03-11T19:44:51.799Z,100610.22
2019-03-11T19:47:22.241Z,100609.83
2019-03-11T19:49:54.097Z,100609.59
2019-03-11T19:52:25.695Z,100613.55
2019-03-11T19:54:56.322Z,100612.80
2019-03-11T19:57:26.962Z,100619.59
2019-03-11T19:59:57.447Z,100619.83
2019-03-11T20:02:27.957Z,100621.25
2019-03-11T20:04:59.834Z,100625.34
2019-03-11T20:07:30.627Z,100629.70
2019-03-11T20:10:01.629Z,100637.08
2019-03-11T20:12:32.728Z,100638.94
2019-03-11T20:15:05.926Z,100637.10
2019-03-11T20:17:37.431Z,100652.28
2019-03-11T20:20:11.310Z,100649.21
2019-03-11T20:22:42.905Z,100646.48
2019-03-11T20:25:16.539Z,100652.12
2019-03-11T20:27:48.457Z,100651.89
2019-03-11T20:30:20.766Z,100653.07
2019-03-11T20:32:51.571Z,100654.36
2019-03-11T20:35:22.134Z,100664.66
2019-03-11T20:37:52.730Z,100672.38
2019-03-11T20:40:47.160Z,100678.41
2019-03-11T20:43:18.730Z,100679.80
2019-03-11T20:45:49.488Z,100680.83
2019-03-11T20:48:20.860Z,100689.70
2019-03-11T20:50:51.304Z,100696.42
2019-03-11T20:53:21.924Z,100709.00
2019-03-11T20:55:53.476Z,100710.52
2019-03-11T20:58:25.470Z,100710.68
2019-03-11T21:00:56.274Z,100709.53
2019-03-11T21:03:44.994Z,100716.06
2019-03-11T21:06:15.888Z,100719.59
2019-03-11T21:08:46.472Z,100719.42
2019-03-11T21:11:17.201Z,100727.65
2019-03-11T21:13:47.683Z,100723.29
2019-03-11T21:16:18.329Z,100731.02
2019-03-11T21:18:49.101Z,100728.34
2019-03-11T21:21:19.617Z,100729.55
2019-03-11T21:24:01.608Z,100727.63
2019-03-11T21:26:23.328Z,100737.92
2019-03-11T21:28:55.259Z,100742.95
2019-03-11T21:31:28.066Z,100750.94
2019-03-11T21:33:59.277Z,100750.44
2019-03-11T21:36:32.194Z,100755.83
2019-03-11T21:39:05.465Z,100761.38
2019-03-11T21:41:39.121Z,100760.09
2019-03-11T21:44:10.432Z,100770.48
2019-03-11T21:46:42.192Z,100770.72
2019-03-11T21:49:15.308Z,100780.87
2019-03-11T21:51:46.462Z,100782.55
2019-03-11T21:54:18.179Z,100791.41
2019-03-11T21:56:49.323Z,100789.87
2019-03-11T21:59:21.738Z,100797.59
2019-03-11T22:01:53.381Z,100798.63
2019-03-11T22:04:25.176Z,100795.65
2019-03-11T22:06:56.541Z,100798.47
2019-03-11T22:09:28.659Z,100801.30
2019-03-11T22:11:59.618Z,100809.95
2019-03-11T22:14:31.299Z,100814.95
2019-03-11T22:17:03.788Z,100817.58
2019-03-11T22:19:35.865Z,100817.18
2019-03-11T22:22:07.548Z,100828.05
2019-03-11T22:24:38.708Z,100819.30
2019-03-11T22:27:09.951Z,100829.20
2019-03-11T22:29:41.758Z,100834.38
2019-03-11T22:32:14.271Z,100840.05
2019-03-11T22:34:45.129Z,100845.30
2019-03-11T22:37:16.929Z,100846.34
2019-03-11T22:39:48.668Z,100846.73
2019-03-11T22:42:20.078Z,100858.80
2019-03-11T22:44:51.506Z,100859.20
2019-03-11T22:47:23.188Z,100865.73
2019-03-11T22:49:54.926Z,100860.98
2019-03-11T22:52:26.475Z,100863.95
2019-03-11T22:54:58.473Z,100864.34
2019-03-11T22:57:31.028Z,100870.26
2019-03-11T23:00:02.788Z,100874.28
2019-03-11T23:02:40.040Z,100881.20
2019-03-11T23:05:08.506Z,100879.81
2019-03-11T23:07:40.837Z,100883.80
2019-03-11T23:10:13.704Z,100884.20
2019-03-11T23:12:45.850Z,100887.14
2019-03-11T23:15:17.060Z,100882.64
2019-03-11T23:17:48.549Z,100889.21
2019-03-11T23:20:20.205Z,100888.41
2019-03-11T23:22:52.801Z,100887.53
2019-03-11T23:25:23.692Z,100890.98
2019-03-11T23:27:54.650Z,100901.77
2019-03-11T23:30:26.367Z,100909.98
2019-03-11T23:32:58.586Z,100912.67
2019-03-11T23:35:30.759Z,100918.09
2019-03-11T23:38:02.423Z,100919.48
2019-03-11T23:40:33.920Z,100921.17
2019-03-11T23:43:05.369Z,100922.04
2019-03-11T23:45:37.208Z,100922.55
2019-03-11T23:48:08.103Z,100926.25
2019-03-11T23:50:39.345Z,100933.21
2019-03-11T23:53:10.062Z,100904.03
2019-03-11T23:55:41.147Z,100938.32
2019-03-11T23:58:12.785Z,100945.37
